Time;durP1;ratioP1;P1;durP2;ratioP2;P2;SDS_P1;SDS_P2;PMS_P1;PMS_P2;Temp;Humidity;BMP_temperature;BMP_pressure;BME280_temperature;BME280_humidity;BME280_pressure;Samples;Min_cycle;Max_cycle;Signal;HPM_P1;HPM_P2
2022/07/13 00:02:13;;;;;;;12.77;10.52;;;;;;;23.09;70.08;102029.41;4971563;28;20039;-53
2022/07/13 00:04:40;;;;;;;15.00;10.95;;;;;;;23.11;69.67;102037.41;4960773;28;20059;-56
2022/07/13 00:07:08;;;;;;;14.93;10.95;;;;;;;23.12;69.93;102036.28;4966580;28;20050;-53
2022/07/13 00:09:35;;;;;;;13.80;11.32;;;;;;;23.11;70.15;102031.84;4973742;28;20050;-53
2022/07/13 00:12:03;;;;;;;16.17;11.20;;;;;;;23.09;70.37;102034.97;4976595;28;20105;-50
2022/07/13 00:14:31;;;;;;;15.75;11.57;;;;;;;23.07;71.16;102026.13;4952490;29;20043;-48
2022/07/13 00:16:58;;;;;;;14.93;10.93;;;;;;;23.02;71.50;102022.66;4961222;28;20042;-52
2022/07/13 00:19:26;;;;;;;15.05;11.23;;;;;;;22.96;72.10;102014.44;4968560;28;20039;-53
2022/07/13 00:21:55;;;;;;;15.63;11.60;;;;;;;22.91;72.35;102000.69;4975342;28;20043;-51
2022/07/13 00:24:23;;;;;;;15.45;11.35;;;;;;;22.87;72.36;101987.75;4972179;28;20114;-55
2022/07/13 00:26:50;;;;;;;17.02;12.40;;;;;;;22.81;72.80;101987.09;4967484;28;20051;-52
2022/07/13 00:29:18;;;;;;;14.30;11.65;;;;;;;22.76;72.86;101990.03;4948533;28;20047;-55
2022/07/13 00:31:48;;;;;;;18.63;12.95;;;;;;;22.73;72.90;101999.03;4971125;28;20502;-54
2022/07/13 00:34:16;;;;;;;18.52;13.05;;;;;;;22.70;73.18;101989.34;4967107;28;20076;-53
2022/07/13 00:36:43;;;;;;;22.15;13.60;;;;;;;22.68;73.31;101974.16;4955617;28;20410;-56
2022/07/13 00:39:11;;;;;;;17.75;12.23;;;;;;;22.66;73.16;101980.03;4966937;28;20053;-54
2022/07/13 00:41:48;;;;;;;16.33;12.45;;;;;;;22.67;72.94;101966.97;4958774;28;20043;-57
2022/07/13 00:44:17;;;;;;;20.17;12.43;;;;;;;22.65;72.57;101967.28;4957490;28;20085;-55
2022/07/13 00:46:54;;;;;;;14.40;12.27;;;;;;;22.65;72.69;101970.06;4963638;28;20039;-52
2022/07/13 00:49:22;;;;;;;16.63;10.98;;;;;;;22.65;72.57;101958.13;4954189;28;20047;-52
2022/07/13 00:51:51;;;;;;;16.45;11.63;;;;;;;22.64;72.32;101954.53;4945602;28;20672;-57
2022/07/13 00:54:20;;;;;;;15.77;11.75;;;;;;;22.62;72.53;101958.78;4950202;28;20062;-51
2022/07/13 00:56:49;;;;;;;16.38;11.65;;;;;;;22.62;72.57;101959.59;4941829;28;20166;-51
2022/07/13 00:59:17;;;;;;;15.95;11.07;;;;;;;22.63;72.29;101960.41;4970993;28;20070;-54
2022/07/13 01:01:44;;;;;;;19.45;11.88;;;;;;;22.64;72.29;101956.50;4968960;28;20066;-52
2022/07/13 01:04:12;;;;;;;17.15;12.32;;;;;;;22.62;72.29;101953.22;4943930;28;20486;-55
2022/07/13 01:06:40;;;;;;;17.58;12.30;;;;;;;22.60;72.45;101938.84;4972611;28;20042;-53
2022/07/13 01:09:07;;;;;;;18.17;12.20;;;;;;;22.60;72.52;101930.50;4938400;29;20043;-50
2022/07/13 01:11:35;;;;;;;17.75;11.85;;;;;;;22.57;72.29;101925.59;4971177;28;20513;-52
2022/07/13 01:14:02;;;;;;;17.27;11.77;;;;;;;22.58;71.99;101924.44;4952899;28;20042;-51
2022/07/13 01:16:30;;;;;;;16.63;11.82;;;;;;;22.54;71.83;101919.53;4958060;28;20498;-52
2022/07/13 01:18:58;;;;;;;17.42;11.50;;;;;;;22.52;71.96;101927.38;4971258;28;20042;-51
2022/07/13 01:21:26;;;;;;;16.58;11.68;;;;;;;22.55;71.73;101925.91;4970055;28;20127;-52
2022/07/13 01:23:54;;;;;;;16.25;11.70;;;;;;;22.60;71.35;101933.28;4938523;28;20039;-52
2022/07/13 01:26:22;;;;;;;16.20;10.88;;;;;;;22.62;70.93;101942.13;4938630;29;20043;-51
2022/07/13 01:28:49;;;;;;;19.23;12.05;;;;;;;22.63;69.77;101941.78;4950354;28;20510;-52
2022/07/13 01:31:33;;;;;;;14.25;11.20;;;;;;;22.64;69.72;101939.84;4948140;28;20170;-50
2022/07/13 01:34:01;;;;;;;14.60;11.70;;;;;;;22.63;69.83;101932.63;4945382;28;20066;-50
2022/07/13 01:36:29;;;;;;;18.30;11.82;;;;;;;22.60;69.59;101933.28;4948987;28;20494;-50
2022/07/13 01:39:00;;;;;;;17.30;11.32;;;;;;;22.57;69.83;101928.38;4969819;28;20470;-50
2022/07/13 01:41:29;;;;;;;17.30;11.77;;;;;;;22.53;69.92;101928.19;4951266;28;20049;-55
2022/07/13 01:43:57;;;;;;;19.05;12.68;;;;;;;22.50;69.95;101929.66;4971545;28;20050;-53
2022/07/13 01:46:28;;;;;;;15.75;11.80;;;;;;;22.48;70.11;101925.56;4973926;28;20043;-55
2022/07/13 01:48:58;;;;;;;16.63;11.80;;;;;;;22.46;70.21;101922.28;4952889;29;20067;-50
2022/07/13 01:51:25;;;;;;;13.93;10.73;;;;;;;22.46;70.34;101923.09;4965160;28;20061;-52
2022/07/13 01:53:54;;;;;;;14.60;12.02;;;;;;;22.47;70.40;101910.06;4937024;29;20039;-56
2022/07/13 01:56:22;;;;;;;18.85;12.38;;;;;;;22.46;70.45;101914.75;4954145;28;20042;-53
2022/07/13 01:58:49;;;;;;;16.63;12.30;;;;;;;22.43;70.53;101915.41;4954649;28;20043;-53
2022/07/13 02:01:17;;;;;;;14.40;10.73;;;;;;;22.42;70.54;101916.56;4956688;28;20055;-52
2022/07/13 02:03:47;;;;;;;19.90;12.52;;;;;;;22.43;70.46;101907.09;4936470;29;20103;-55
2022/07/13 02:06:15;;;;;;;17.73;11.95;;;;;;;22.44;70.28;101908.75;4964209;28;20043;-53
2022/07/13 02:08:43;;;;;;;16.23;12.40;;;;;;;22.45;70.14;101920.66;4953471;28;20039;-52
2022/07/13 02:11:19;;;;;;;15.80;11.68;;;;;;;22.47;70.10;101919.19;4950298;28;20493;-50
2022/07/13 02:13:47;;;;;;;18.23;11.27;;;;;;;22.49;69.62;101913.34;4969789;28;20050;-49
2022/07/13 02:16:15;;;;;;;13.43;11.10;;;;;;;22.49;69.50;101905.81;4954701;28;20074;-49
2022/07/13 02:18:43;;;;;;;16.65;12.23;;;;;;;22.48;69.68;101901.38;4955792;28;20049;-56
2022/07/13 02:21:12;;;;;;;14.70;11.90;;;;;;;22.45;69.78;101899.25;4939983;28;20062;-51
2022/07/13 02:23:41;;;;;;;16.67;11.68;;;;;;;22.40;70.08;101896.63;4952546;29;20510;-52
2022/07/13 02:26:09;;;;;;;17.90;11.05;;;;;;;22.39;70.41;101892.19;4970062;28;20409;-51
2022/07/13 02:28:39;;;;;;;16.95;11.68;;;;;;;22.39;70.37;101896.94;4971933;28;20498;-51
2022/07/13 02:31:06;;;;;;;15.23;10.98;;;;;;;22.40;70.36;101890.25;4960699;28;20051;-48
2022/07/13 02:33:35;;;;;;;14.27;11.15;;;;;;;22.40;70.14;101887.50;4947357;28;20039;-55
2022/07/13 02:36:04;;;;;;;16.05;11.35;;;;;;;22.40;70.06;101890.25;4937949;28;20121;-49
2022/07/13 02:38:32;;;;;;;16.65;12.15;;;;;;;22.39;70.17;101883.88;4941109;28;20046;-49
2022/07/13 02:40:59;;;;;;;15.13;11.63;;;;;;;22.39;70.26;101886.66;4974332;28;20043;-52
2022/07/13 02:43:27;;;;;;;17.05;11.75;;;;;;;22.39;70.09;101875.53;4955038;28;20437;-53
2022/07/13 02:45:54;;;;;;;15.32;11.27;;;;;;;22.38;70.22;101871.13;4954582;28;20050;-50
2022/07/13 02:48:22;;;;;;;16.67;11.88;;;;;;;22.35;70.36;101871.78;4950099;29;20039;-52
2022/07/13 02:50:50;;;;;;;17.77;11.27;;;;;;;22.32;70.42;101869.63;4950144;28;20122;-51
2022/07/13 02:53:18;;;;;;;16.83;11.23;;;;;;;22.31;70.48;101868.00;4954642;28;20047;-50
2022/07/13 02:55:46;;;;;;;14.68;11.38;;;;;;;22.31;70.29;101856.91;4949377;28;20097;-50
2022/07/13 02:58:14;;;;;;;16.30;11.88;;;;;;;22.28;70.12;101846.47;4953822;28;20074;-55
2022/07/13 03:00:41;;;;;;;17.73;11.80;;;;;;;22.27;70.18;101858.69;4971710;28;20064;-53
2022/07/13 03:03:10;;;;;;;17.00;11.45;;;;;;;22.26;70.01;101862.63;4950439;28;20047;-48
2022/07/13 03:05:37;;;;;;;18.25;11.40;;;;;;;22.27;69.79;101865.06;4944655;28;20520;-51
2022/07/13 03:08:05;;;;;;;20.17;11.50;;;;;;;22.29;69.69;101861.97;4948439;28;20035;-52
2022/07/13 03:10:33;;;;;;;16.35;11.30;;;;;;;22.28;69.46;101860.34;4971404;28;20510;-53
2022/07/13 03:13:01;;;;;;;14.40;10.27;;;;;;;22.30;69.54;101864.44;4940134;28;20057;-48
2022/07/13 03:15:28;;;;;;;18.88;10.88;;;;;;;22.31;69.12;101868.00;4961427;28;20036;-52
2022/07/13 03:17:57;;;;;;;18.75;11.32;;;;;;;22.32;68.59;101861.31;4954131;28;20125;-50
2022/07/13 03:20:24;;;;;;;14.48;10.57;;;;;;;22.31;68.08;101865.22;4952440;28;20057;-54
2022/07/13 03:22:52;;;;;;;18.80;10.23;;;;;;;22.26;67.64;101859.84;4955354;28;20054;-50
2022/07/13 03:25:20;;;;;;;17.48;10.98;;;;;;;22.23;67.53;101854.94;4952959;28;20464;-49
2022/07/13 03:27:51;;;;;;;12.57;9.73;;;;;;;22.22;67.59;101850.50;4941564;28;20042;-51
2022/07/13 03:30:20;;;;;;;13.20;9.88;;;;;;;22.22;67.79;101845.78;4950681;28;20038;-48
2022/07/13 03:32:48;;;;;;;18.00;10.43;;;;;;;22.24;67.38;101839.91;4942500;28;20059;-50
2022/07/13 03:35:18;;;;;;;19.00;10.55;;;;;;;22.22;67.47;101845.78;4954762;28;20394;-51
2022/07/13 03:37:48;;;;;;;16.52;10.55;;;;;;;22.23;67.66;101847.41;4967908;28;20494;-48
2022/07/13 03:40:16;;;;;;;14.43;10.05;;;;;;;22.24;67.59;101837.13;4954505;28;20067;-49
2022/07/13 03:42:45;;;;;;;13.35;9.32;;;;;;;22.26;67.42;101840.41;4959220;28;20050;-50
2022/07/13 03:45:13;;;;;;;13.70;9.85;;;;;;;22.27;67.45;101836.47;4949607;28;20097;-50
2022/07/13 03:47:40;;;;;;;14.10;9.52;;;;;;;22.27;67.39;101836.47;4971553;28;20498;-54
2022/07/13 03:50:09;;;;;;;13.45;9.32;;;;;;;22.26;67.35;101834.84;4959109;28;20070;-50
2022/07/13 03:52:43;;;;;;;13.10;9.20;;;;;;;22.26;67.23;101834.84;4974546;28;20074;-52
2022/07/13 03:55:12;;;;;;;14.65;9.07;;;;;;;22.25;67.46;101838.78;4948737;28;20043;-49
2022/07/13 03:57:40;;;;;;;13.73;8.35;;;;;;;22.23;67.42;101833.53;4952988;28;20102;-51
2022/07/13 04:00:08;;;;;;;12.52;8.55;;;;;;;22.22;67.19;101833.84;4947394;28;20042;-52
2022/07/13 04:02:42;;;;;;;13.65;7.80;;;;;;;22.16;66.99;101833.16;4974449;28;20043;-52
2022/07/13 04:05:13;;;;;;;10.45;7.35;;;;;;;22.13;67.24;101836.59;4956890;28;20043;-49
2022/07/13 04:07:43;;;;;;;11.50;6.90;;;;;;;22.13;66.84;101845.72;4950864;28;20039;-54
2022/07/13 04:10:11;;;;;;;12.98;7.35;;;;;;;22.14;66.94;101832.66;4956430;28;20406;-51
2022/07/13 04:12:42;;;;;;;15.13;7.20;;;;;;;22.16;66.98;101835.94;4957422;28;20517;-52
2022/07/13 04:15:11;;;;;;;10.88;6.88;;;;;;;22.18;66.66;101843.94;4957381;28;20118;-52
2022/07/13 04:17:41;;;;;;;10.70;6.68;;;;;;;22.21;66.39;101837.78;4937879;28;20122;-48
2022/07/13 04:20:10;;;;;;;12.15;6.93;;;;;;;22.23;66.23;101813.28;4965465;28;20101;-49
2022/07/13 04:22:40;;;;;;;10.40;5.82;;;;;;;22.23;66.06;101827.97;4957034;28;20114;-52
2022/07/13 04:25:09;;;;;;;9.73;6.10;;;;;;;22.23;66.03;101824.41;4974231;28;20047;-52
2022/07/13 04:27:37;;;;;;;12.18;6.13;;;;;;;22.24;65.75;101814.91;4954094;28;20433;-50
2022/07/13 04:30:06;;;;;;;9.60;6.22;;;;;;;22.23;65.55;101808.56;4956426;28;20105;-48
2022/07/13 04:32:35;;;;;;;11.52;5.88;;;;;;;22.24;65.35;101814.91;4957783;28;20422;-54
2022/07/13 04:35:03;;;;;;;10.27;5.55;;;;;;;22.24;65.46;101817.69;4951561;28;20043;-48
2022/07/13 04:37:36;;;;;;;8.50;5.13;;;;;;;22.26;65.10;101815.41;4949516;28;20462;-49
2022/07/13 04:40:04;;;;;;;11.52;5.38;;;;;;;22.25;64.84;101805.47;4956207;28;20045;-50
2022/07/13 04:42:34;;;;;;;9.80;5.80;;;;;;;22.26;64.84;101807.09;4946906;29;20043;-47
2022/07/13 04:45:02;;;;;;;10.00;4.95;;;;;;;22.26;65.03;101807.09;4944237;28;20056;-49
2022/07/13 04:47:30;;;;;;;10.25;5.30;;;;;;;22.26;64.70;101812.63;4940208;28;20388;-48
2022/07/13 04:49:58;;;;;;;10.02;5.05;;;;;;;22.27;64.53;101804.00;4955145;28;20046;-49
2022/07/13 04:52:25;;;;;;;12.05;5.35;;;;;;;22.29;64.21;101809.22;4971265;28;20049;-49
2022/07/13 04:54:53;;;;;;;10.77;4.72;;;;;;;22.29;64.39;101815.56;4947730;28;20066;-50
2022/07/13 04:57:23;;;;;;;6.65;4.00;;;;;;;22.34;64.62;101811.81;4950212;28;20558;-49
2022/07/13 04:59:51;;;;;;;8.63;3.95;;;;;;;22.36;64.43;101804.00;4971377;28;20582;-52
2022/07/13 05:02:18;;;;;;;9.55;3.95;;;;;;;22.39;64.24;101810.84;4926006;29;20081;-49
2022/07/13 05:04:46;;;;;;;7.68;3.75;;;;;;;22.40;64.38;101810.53;4953872;28;20087;-48
2022/07/13 05:07:14;;;;;;;6.82;4.00;;;;;;;22.41;64.44;101806.59;4956889;28;20046;-51
2022/07/13 05:09:42;;;;;;;8.52;4.00;;;;;;;22.41;63.83;101803.03;4951566;28;20215;-49
2022/07/13 05:12:10;;;;;;;8.60;3.60;;;;;;;22.43;64.02;101796.00;4951990;28;20518;-55
2022/07/13 05:14:38;;;;;;;7.28;4.20;;;;;;;22.44;64.12;101797.66;4957707;28;20409;-49
2022/07/13 05:17:08;;;;;;;7.13;3.53;;;;;;;22.43;64.21;101800.75;4945509;28;20069;-51
2022/07/13 05:19:36;;;;;;;7.47;3.67;;;;;;;22.44;63.82;101799.59;4952436;28;20398;-54
2022/07/13 05:22:05;;;;;;;8.80;3.63;;;;;;;22.45;63.88;101798.47;4956362;28;20039;-57
2022/07/13 05:24:43;;;;;;;8.10;3.63;;;;;;;22.44;63.54;101796.81;4957609;28;20042;-58
2022/07/13 05:27:12;;;;;;;7.93;4.15;;;;;;;22.47;63.64;101791.44;4956489;28;20089;-54
2022/07/13 05:29:41;;;;;;;7.32;3.95;;;;;;;22.48;63.18;101793.06;4956054;28;20134;-54
2022/07/13 05:32:09;;;;;;;8.85;4.18;;;;;;;22.48;62.64;101795.84;4954083;29;20086;-53
2022/07/13 05:34:36;;;;;;;7.13;3.72;;;;;;;22.50;62.57;101801.88;4950760;29;20036;-49
2022/07/13 05:37:04;;;;;;;9.43;4.18;;;;;;;22.52;62.15;101807.13;4943116;29;20050;-52
2022/07/13 05:39:32;;;;;;;8.23;3.72;;;;;;;22.55;62.54;101809.25;4954698;29;20043;-49
2022/07/13 05:42:00;;;;;;;6.70;3.70;;;;;;;22.57;62.33;101808.94;4955145;29;20098;-52
2022/07/13 05:44:28;;;;;;;11.75;3.85;;;;;;;22.56;61.91;101821.97;4956447;29;20051;-54
2022/07/13 05:46:58;;;;;;;7.30;3.63;;;;;;;22.55;61.38;101821.16;4949858;29;20039;-56
2022/07/13 05:49:26;;;;;;;11.02;3.83;;;;;;;22.54;61.34;101819.53;4953172;29;20039;-53
2022/07/13 05:51:54;;;;;;;6.25;3.53;;;;;;;22.54;60.79;101824.28;4954968;29;20106;-51
2022/07/13 05:54:22;;;;;;;7.85;3.70;;;;;;;22.53;60.64;101817.91;4605760;28;10000565;-54
2022/07/13 05:57:09;;;;;;;8.00;3.42;;;;;;;22.53;60.47;101811.53;4936464;29;20067;-50
2022/07/13 05:59:37;;;;;;;7.70;4.03;;;;;;;22.52;60.03;101827.38;4942245;28;20051;-54
2022/07/13 06:02:05;;;;;;;8.40;3.90;;;;;;;22.54;59.78;101835.41;4952113;28;20054;-48
2022/07/13 06:04:32;;;;;;;7.10;3.75;;;;;;;22.56;59.87;101833.09;4951906;29;20387;-52
2022/07/13 06:07:00;;;;;;;7.57;3.65;;;;;;;22.59;59.99;101837.22;4949940;29;20051;-52
2022/07/13 06:09:28;;;;;;;10.60;4.28;;;;;;;22.61;59.89;101841.28;4933917;28;20138;-52
2022/07/13 06:11:56;;;;;;;8.43;4.10;;;;;;;22.64;60.02;101829.53;4946048;29;20423;-54
2022/07/13 06:14:23;;;;;;;8.35;3.78;;;;;;;22.64;60.18;101834.25;4950957;29;20395;-55
2022/07/13 06:16:51;;;;;;;11.60;4.20;;;;;;;22.66;60.26;101826.44;4950573;29;20050;-52
2022/07/13 06:19:18;;;;;;;8.63;3.78;;;;;;;22.67;60.33;101822.50;4948858;28;20047;-50
2022/07/13 06:21:46;;;;;;;8.43;3.90;;;;;;;22.68;60.44;101821.34;4945000;29;20498;-51
2022/07/13 06:24:13;;;;;;;7.75;4.05;;;;;;;22.69;60.55;101823.81;4954198;29;20046;-51
2022/07/13 06:26:41;;;;;;;6.93;3.80;;;;;;;22.70;60.69;101828.19;4953781;29;20455;-54
2022/07/13 06:29:08;;;;;;;7.55;3.88;;;;;;;22.72;60.71;101823.13;4952046;29;20044;-51
2022/07/13 06:31:36;;;;;;;9.27;4.25;;;;;;;22.75;60.55;101824.44;4957830;28;20062;-52
2022/07/13 06:34:04;;;;;;;10.70;4.05;;;;;;;22.80;60.63;101821.53;4971275;28;20043;-50
2022/07/13 06:36:31;;;;;;;13.50;6.38;;;;;;;22.84;60.74;101816.13;4973629;28;20046;-50
2022/07/13 06:38:59;;;;;;;14.35;4.78;;;;;;;22.87;60.97;101821.03;4973257;28;20042;-46
2022/07/13 06:41:27;;;;;;;9.80;4.70;;;;;;;22.89;60.78;101818.72;4973974;28;20038;-51
2022/07/13 06:43:54;;;;;;;7.82;4.40;;;;;;;22.91;60.73;101814.47;4971161;28;20522;-49
2022/07/13 06:46:23;;;;;;;9.43;4.65;;;;;;;22.94;60.80;101816.59;4967751;28;20078;-49
2022/07/13 06:48:53;;;;;;;14.60;4.63;;;;;;;22.97;60.69;101813.19;4958894;28;20043;-50
2022/07/13 06:51:20;;;;;;;10.73;4.85;;;;;;;23.00;60.58;101813.72;4960399;28;20523;-49
2022/07/13 06:53:48;;;;;;;10.13;4.65;;;;;;;23.02;60.82;101812.22;4973585;28;20047;-51
2022/07/13 06:56:16;;;;;;;12.75;5.05;;;;;;;23.04;60.98;101814.66;4953299;28;20047;-51
2022/07/13 06:58:44;;;;;;;11.07;4.88;;;;;;;23.06;60.83;101812.38;4964015;28;20048;-48
2022/07/13 07:01:11;;;;;;;9.70;4.53;;;;;;;23.10;60.80;101805.03;4956256;28;20409;-57
2022/07/13 07:03:39;;;;;;;11.98;5.15;;;;;;;23.12;60.90;101811.88;4956865;28;20130;-53
2022/07/13 07:06:07;;;;;;;13.23;5.22;;;;;;;23.14;61.44;101822.69;4974256;28;20560;-53
2022/07/13 07:08:35;;;;;;;17.42;5.25;;;;;;;23.15;60.98;101821.53;4952307;28;20086;-52
2022/07/13 07:11:02;;;;;;;11.48;5.47;;;;;;;23.13;61.45;101830.19;4971837;28;20086;-54
2022/07/13 07:13:30;;;;;;;9.02;5.10;;;;;;;23.16;61.50;101823.16;4968209;28;20050;-50
2022/07/13 07:15:59;;;;;;;12.25;5.30;;;;;;;23.18;61.92;101820.84;4974736;28;20050;-50
2022/07/13 07:18:27;;;;;;;10.65;5.47;;;;;;;23.23;62.17;101826.25;4965338;28;20047;-50
2022/07/13 07:20:54;;;;;;;9.63;5.35;;;;;;;23.26;62.28;101814.47;4974691;28;20138;-48
2022/07/13 07:23:22;;;;;;;12.23;5.63;;;;;;;23.26;62.77;101817.25;4970878;28;20043;-55
2022/07/13 07:25:49;;;;;;;16.83;6.55;;;;;;;23.26;62.59;101817.25;4965112;28;20438;-53
2022/07/13 07:28:17;;;;;;;10.60;5.68;;;;;;;23.25;62.52;101825.91;4975924;28;20039;-53
2022/07/13 07:30:44;;;;;;;17.17;5.85;;;;;;;23.24;62.77;101819.56;4976377;28;20050;-54
2022/07/13 07:33:12;;;;;;;15.63;5.97;;;;;;;23.22;63.24;101816.28;4974260;28;20402;-53
2022/07/13 07:35:40;;;;;;;12.57;6.03;;;;;;;23.24;63.58;101814.00;4971024;28;20046;-54
2022/07/13 07:38:07;;;;;;;10.15;5.63;;;;;;;23.27;63.84;101812.50;4974798;28;20043;-50
2022/07/13 07:40:35;;;;;;;13.80;5.68;;;;;;;23.31;63.94;101796.81;4977127;28;20046;-49
2022/07/13 07:43:02;;;;;;;12.70;5.82;;;;;;;23.35;64.30;101803.31;4975479;28;20070;-49
2022/07/13 07:45:30;;;;;;;11.18;5.43;;;;;;;23.37;64.07;101818.53;4959712;28;20043;-49
2022/07/13 07:47:58;;;;;;;16.05;6.03;;;;;;;23.39;64.07;101810.66;4971261;28;20521;-50
2022/07/13 07:50:25;;;;;;;11.65;5.65;;;;;;;23.42;64.13;101811.16;4959400;28;20047;-49
2022/07/13 07:52:53;;;;;;;15.07;5.75;;;;;;;23.45;64.01;101802.16;4976022;28;20043;-49
2022/07/13 07:55:31;;;;;;;14.90;5.55;;;;;;;23.49;64.23;101811.47;4964131;28;20050;-49
2022/07/13 07:57:59;;;;;;;13.93;5.78;;;;;;;23.52;64.59;101803.28;4972390;28;20046;-49
2022/07/13 08:00:26;;;;;;;13.10;5.72;;;;;;;23.55;64.76;101808.19;4968815;28;20046;-51
2022/07/13 08:02:57;;;;;;;16.48;5.85;;;;;;;23.56;65.46;101809.00;4975775;28;20502;-49
2022/07/13 08:05:25;;;;;;;9.63;5.30;;;;;;;23.61;63.97;101811.59;4963085;28;20097;-49
2022/07/13 08:07:52;;;;;;;12.80;5.32;;;;;;;23.65;64.29;101807.00;4971126;28;20046;-49
2022/07/13 08:10:20;;;;;;;8.88;5.00;;;;;;;23.70;64.47;101811.56;4975884;28;20465;-49
2022/07/13 08:13:00;;;;;;;10.73;5.50;;;;;;;23.72;64.16;101807.28;4975853;28;20102;-52
2022/07/13 08:15:28;;;;;;;14.85;5.30;;;;;;;23.73;64.28;101811.72;4976226;28;20046;-48
2022/07/13 08:17:56;;;;;;;11.05;4.28;;;;;;;23.75;64.48;101806.66;4964274;28;20058;-51
2022/07/13 08:20:24;;;;;;;11.43;5.25;;;;;;;23.77;65.35;101814.69;4955543;29;20050;-55
2022/07/13 08:22:52;;;;;;;9.07;4.57;;;;;;;23.77;65.26;101809.91;4970339;28;20057;-53
2022/07/13 08:25:21;;;;;;;12.43;5.78;;;;;;;23.77;65.14;101806.31;4974575;28;20513;-48
2022/07/13 08:27:49;;;;;;;11.68;5.25;;;;;;;23.77;65.20;101807.13;4965060;28;20048;-50
2022/07/13 08:30:16;;;;;;;9.82;4.65;;;;;;;23.78;65.92;101817.09;4957887;28;20045;-47
2022/07/13 08:32:44;;;;;;;16.13;6.63;;;;;;;23.80;65.03;101814.81;4975873;28;20082;-47
2022/07/13 08:40:44;;;;;;;13.63;5.72;;;;;;;23.90;65.87;101815.59;4963581;28;20039;-52
2022/07/13 08:43:12;;;;;;;15.13;5.22;;;;;;;23.91;65.85;101820.84;4975372;28;20038;-50
2022/07/13 08:45:41;;;;;;;11.52;5.15;;;;;;;23.92;65.45;101816.09;4975524;28;20046;-54
2022/07/13 08:48:18;;;;;;;9.45;5.53;;;;;;;23.93;65.27;101821.31;4950230;29;20047;-50
2022/07/13 08:50:45;;;;;;;12.93;5.18;;;;;;;23.93;64.41;101812.97;4961806;28;20054;-53
2022/07/13 08:53:13;;;;;;;12.57;5.18;;;;;;;23.95;64.64;101823.75;4975265;28;20497;-50
2022/07/13 08:55:41;;;;;;;14.77;5.85;;;;;;;23.96;65.21;101822.63;4938840;28;20044;-51
2022/07/13 08:58:17;;;;;;;9.68;4.82;;;;;;;23.98;63.74;101821.13;4939543;28;20498;-49
2022/07/13 09:00:45;;;;;;;12.63;4.97;;;;;;;24.00;62.91;101824.41;4975211;28;20134;-51
2022/07/13 09:03:13;;;;;;;13.05;4.50;;;;;;;24.02;61.78;101826.81;4975135;28;20121;-48
2022/07/13 09:05:41;;;;;;;7.50;3.72;;;;;;;24.06;61.49;101821.41;4975478;28;20046;-49
2022/07/13 09:08:10;;;;;;;14.05;4.22;;;;;;;24.08;60.84;101825.50;4971256;28;20125;-50
2022/07/13 09:10:57;;;;;;;6.90;3.80;;;;;;;24.14;59.89;101846.41;4954696;28;20050;-50
2022/07/13 09:13:38;;;;;;;8.75;4.00;;;;;;;24.18;59.61;101827.09;4971472;28;20057;-52
2022/07/13 09:16:20;;;;;;;8.93;3.92;;;;;;;24.23;59.71;101824.91;4966101;28;20481;-47
2022/07/13 09:18:53;;;;;;;12.93;4.10;;;;;;;24.29;59.78;101835.84;4957889;28;20395;-50
2022/07/13 09:21:30;;;;;;;7.38;3.95;;;;;;;24.33;60.25;101837.63;4958275;28;20569;-52
2022/07/13 09:24:01;;;;;;;7.55;4.22;;;;;;;24.34;59.85;101838.44;4925642;28;20043;-56
2022/07/13 09:26:45;;;;;;;11.02;4.55;;;;;;;24.33;60.20;101839.59;4955695;28;20051;-50
2022/07/13 09:29:14;;;;;;;8.95;4.35;;;;;;;24.34;61.17;101839.28;4960150;28;20065;-52
2022/07/13 09:31:52;;;;;;;9.13;5.00;;;;;;;24.35;60.65;101826.97;4954238;29;20063;-49
2022/07/13 09:34:43;;;;;;;9.50;5.00;;;;;;;24.34;60.49;101835.66;4961895;28;20053;-49
2022/07/13 09:37:15;;;;;;;8.55;4.40;;;;;;;24.36;60.82;101836.94;4974579;28;20110;-49
2022/07/13 09:40:06;;;;;;;10.15;4.70;;;;;;;24.35;61.23;101845.66;4974912;28;20035;-48
2022/07/13 09:42:42;;;;;;;11.10;5.05;;;;;;;24.38;61.33;101850.56;4974854;28;20047;-51
2022/07/13 09:47:59;;;;;;;9.85;4.53;;;;;;;24.42;61.25;101852.31;4974531;28;20502;-55
2022/07/13 09:50:54;;;;;;;8.38;4.40;;;;;;;24.44;60.26;101846.44;4957471;28;20058;-54
2022/07/13 09:53:33;;;;;;;11.63;4.43;;;;;;;24.46;59.47;101849.69;4973745;28;20489;-53
2022/07/13 09:56:02;;;;;;;14.65;4.50;;;;;;;24.49;59.56;101857.41;4954366;28;20040;-48
2022/07/13 09:58:32;;;;;;;6.32;3.80;;;;;;;24.49;58.63;101862.97;4974004;28;20050;-52
2022/07/13 10:01:02;;;;;;;7.55;3.90;;;;;;;24.47;58.23;101865.28;4972141;28;20408;-55
2022/07/13 10:03:30;;;;;;;11.30;4.53;;;;;;;24.47;58.26;101870.84;4956615;28;20494;-54
2022/07/13 10:06:02;;;;;;;10.20;4.20;;;;;;;24.49;57.59;101860.19;4964746;28;20047;-52
2022/07/13 10:08:30;;;;;;;7.85;3.97;;;;;;;24.53;56.33;101855.53;4974098;28;20391;-49
2022/07/13 10:10:58;;;;;;;9.43;3.65;;;;;;;24.58;55.20;101852.59;4974121;28;20508;-50
2022/07/13 10:13:26;;;;;;;14.73;4.00;;;;;;;24.62;54.06;101856.31;4953146;28;20043;-47
2022/07/13 10:15:53;;;;;;;10.48;4.50;;;;;;;24.66;53.89;101848.91;4972052;28;20055;-47
2022/07/13 10:18:24;;;;;;;10.18;3.28;;;;;;;24.71;54.45;101845.09;4970399;28;20077;-49
2022/07/13 10:21:20;;;;;;;7.35;3.78;;;;;;;24.78;54.84;101853.75;4952967;29;20463;-50
2022/07/13 10:23:48;;;;;;;7.40;3.58;;;;;;;24.84;54.79;101845.97;4971208;28;20051;-48
2022/07/13 10:26:20;;;;;;;10.77;3.40;;;;;;;24.91;53.93;101851.81;4954690;28;20045;-53
2022/07/13 10:29:11;;;;;;;7.22;3.20;;;;;;;24.92;52.17;101853.47;4969603;28;20047;-50
2022/07/13 10:31:40;;;;;;;4.75;2.95;;;;;;;24.91;52.07;101846.25;4955728;28;20103;-49
2022/07/13 10:34:12;;;;;;;9.45;2.95;;;;;;;24.92;52.04;101853.47;4955289;28;20043;-53
2022/07/13 10:36:52;;;;;;;5.45;2.80;;;;;;;24.88;52.06;101847.75;4972737;28;20422;-50
2022/07/13 10:39:24;;;;;;;6.40;2.83;;;;;;;24.89;51.10;101851.34;4956480;28;20115;-50
2022/07/13 10:42:01;;;;;;;7.07;2.80;;;;;;;24.88;51.62;101863.66;4970432;28;20047;-51
2022/07/13 10:44:37;;;;;;;6.32;2.70;;;;;;;24.91;50.68;101860.19;4940760;28;20043;-51
2022/07/13 10:47:19;;;;;;;6.20;2.90;;;;;;;24.93;50.69;101862.66;4970061;28;20418;-49
2022/07/13 10:49:47;;;;;;;5.65;3.03;;;;;;;24.95;50.61;101865.91;4964011;28;20049;-50
2022/07/13 10:52:41;;;;;;;5.90;2.85;;;;;;;24.95;51.28;101858.34;4959826;28;20034;-52
2022/07/13 10:55:30;;;;;;;6.50;2.90;;;;;;;24.99;51.84;101862.09;4977059;28;20118;-54
2022/07/13 10:57:57;;;;;;;5.97;2.85;;;;;;;25.03;51.29;101865.81;4977356;28;20054;-50
2022/07/13 11:00:41;;;;;;;7.20;2.90;;;;;;;25.09;50.70;101861.69;4611290;28;10000338;-47
2022/07/13 11:03:27;;;;;;;7.28;2.92;;;;;;;25.12;51.43;101862.97;4957740;28;20043;-50
2022/07/13 11:06:12;;;;;;;5.60;2.88;;;;;;;25.13;52.71;101863.78;4954469;28;20034;-52
2022/07/13 11:08:41;;;;;;;9.13;4.15;;;;;;;25.11;52.79;101861.34;4954366;28;20043;-49
2022/07/13 11:11:16;;;;;;;8.02;3.30;;;;;;;25.16;53.27;101868.66;4971960;28;20040;-51
2022/07/13 11:13:45;;;;;;;7.20;3.53;;;;;;;25.20;55.07;101864.06;4973847;28;20047;-51
2022/07/13 11:16:13;;;;;;;6.53;3.53;;;;;;;25.26;55.35;101871.09;4972854;28;20050;-54
2022/07/13 11:18:41;;;;;;;10.10;3.10;;;;;;;25.33;53.08;101870.50;4967244;28;20079;-54
2022/07/13 11:21:15;;;;;;;6.50;3.13;;;;;;;25.37;51.91;101869.47;4956779;28;20074;-51
2022/07/13 11:26:34;;;;;;;9.07;2.85;;;;;;;25.40;51.19;101868.81;4973490;28;20046;-50
2022/07/13 11:29:09;;;;;;;5.57;3.65;;;;;;;25.39;51.88;101867.16;4970445;28;20043;-49
2022/07/13 11:31:38;;;;;;;6.93;3.38;;;;;;;25.43;54.38;101868.09;4965916;28;20117;-55
2022/07/13 11:34:06;;;;;;;9.80;3.80;;;;;;;25.49;54.56;101877.88;4974116;28;20047;-53
2022/07/13 11:36:34;;;;;;;9.93;3.92;;;;;;;25.53;54.02;101875.22;4950738;29;20062;-47
2022/07/13 11:39:02;;;;;;;5.80;3.22;;;;;;;25.57;53.37;101873.38;4964439;28;20498;-50
2022/07/13 11:41:30;;;;;;;6.32;3.40;;;;;;;25.59;53.51;101864.66;4963542;28;20050;-47